createdAt,value
2022-10-17T00:00:04.303Z,83
2022-10-17T00:01:00.179Z,83
2022-10-17T00:02:00.250Z,83
2022-10-17T00:03:00.201Z,83
2022-10-17T00:04:00.944Z,82
2022-10-17T00:05:02.938Z,82
2022-10-17T00:06:00.289Z,82
2022-10-17T00:07:00.227Z,82
2022-10-17T00:08:00.288Z,82
2022-10-17T00:09:00.250Z,82
2022-10-17T00:10:03.548Z,82
2022-10-17T00:11:00.249Z,82
2022-10-17T00:12:00.338Z,82
2022-10-17T00:13:00.259Z,82
2022-10-17T00:14:00.369Z,82
2022-10-17T00:15:03.129Z,82
2022-10-17T00:16:00.408Z,82
2022-10-17T00:17:00.316Z,82
2022-10-17T00:18:00.914Z,82
2022-10-17T00:19:00.335Z,82
2022-10-17T00:20:03.835Z,82
2022-10-17T00:21:00.356Z,82
2022-10-17T00:22:00.944Z,82
2022-10-17T00:23:00.363Z,82
2022-10-17T00:24:00.437Z,82
2022-10-17T00:25:03.241Z,82
2022-10-17T00:26:00.555Z,82
2022-10-17T00:27:00.402Z,82
2022-10-17T00:28:00.487Z,82
2022-10-17T00:29:00.444Z,81
2022-10-17T00:30:05.936Z,81
2022-10-17T00:31:00.416Z,81
2022-10-17T00:32:00.475Z,81
2022-10-17T00:33:00.437Z,81
2022-10-17T00:34:00.528Z,81
2022-10-17T00:35:03.222Z,81
2022-10-17T00:36:02.931Z,81
2022-10-17T00:37:00.467Z,81
2022-10-17T00:38:00.521Z,81
2022-10-17T00:39:00.504Z,81
2022-10-17T00:40:04.810Z,81
2022-10-17T00:41:00.501Z,81
2022-10-17T00:42:00.590Z,81
2022-10-17T00:43:00.516Z,81
2022-10-17T00:44:00.566Z,81
2022-10-17T00:45:04.084Z,81
2022-10-17T00:46:00.639Z,81
2022-10-17T00:47:00.544Z,81
2022-10-17T00:48:00.651Z,81
2022-10-17T00:49:00.554Z,81
2022-10-17T00:50:03.597Z,81
2022-10-17T00:51:00.589Z,81
2022-10-17T00:52:00.675Z,81
2022-10-17T00:53:00.590Z,81
2022-10-17T00:54:00.964Z,81
2022-10-17T00:55:03.458Z,81
2022-10-17T00:56:00.687Z,81
2022-10-17T00:57:00.630Z,81
2022-10-17T00:58:00.741Z,81
2022-10-17T00:59:00.666Z,81
2022-10-17T01:00:04.027Z,81
2022-10-17T01:01:00.707Z,81
2022-10-17T01:02:00.745Z,81
2022-10-17T01:03:00.691Z,81
2022-10-17T01:04:00.791Z,81
2022-10-17T01:05:03.432Z,81
2022-10-17T01:06:00.780Z,81
2022-10-17T01:07:00.700Z,81
2022-10-17T01:08:00.941Z,81
2022-10-17T01:09:00.723Z,81
2022-10-17T01:10:03.984Z,81
2022-10-17T01:11:00.721Z,81
2022-10-17T01:12:00.931Z,81
2022-10-17T01:13:00.739Z,81
2022-10-17T01:14:00.928Z,80
2022-10-17T01:15:03.422Z,80
2022-10-17T01:16:00.850Z,80
2022-10-17T01:17:00.765Z,81
2022-10-17T01:18:00.835Z,81
2022-10-17T01:19:00.771Z,81
2022-10-17T01:20:03.912Z,81
2022-10-17T01:21:00.790Z,81
2022-10-17T01:22:00.881Z,81
2022-10-17T01:23:00.803Z,81
2022-10-17T01:24:00.889Z,81
2022-10-17T01:25:03.667Z,81
2022-10-17T01:26:00.921Z,81
2022-10-17T01:27:00.832Z,81
2022-10-17T01:28:00.917Z,81
2022-10-17T01:29:00.846Z,81
2022-10-17T01:30:04.098Z,81
2022-10-17T01:31:00.838Z,81
2022-10-17T01:32:00.951Z,81
2022-10-17T01:33:00.877Z,81
2022-10-17T01:34:00.937Z,80
2022-10-17T01:35:03.706Z,80
2022-10-17T01:36:04.751Z,81
2022-10-17T01:37:00.874Z,81
2022-10-17T01:38:00.970Z,81
2022-10-17T01:39:00.915Z,81
2022-10-17T01:40:05.761Z,81
2022-10-17T01:41:00.913Z,81
2022-10-17T01:42:00.998Z,81
2022-10-17T01:43:00.919Z,81
2022-10-17T01:44:01.008Z,81
2022-10-17T01:45:03.718Z,81
2022-10-17T01:46:01.052Z,81
2022-10-17T01:47:00.952Z,81
2022-10-17T01:48:01.029Z,81
2022-10-17T01:49:00.955Z,81
2022-10-17T01:50:04.051Z,81
2022-10-17T01:51:00.985Z,81
2022-10-17T01:52:01.064Z,81
2022-10-17T01:53:00.986Z,81
2022-10-17T01:54:01.096Z,81
2022-10-17T01:55:03.944Z,80
2022-10-17T01:56:01.066Z,80
2022-10-17T01:57:01.021Z,80
2022-10-17T01:58:01.083Z,80
2022-10-17T01:59:01.023Z,80
2022-10-17T02:00:06.776Z,80
2022-10-17T02:01:01.086Z,80
2022-10-17T02:02:01.146Z,80
2022-10-17T02:03:01.064Z,80
2022-10-17T02:04:01.273Z,80
2022-10-17T02:05:03.989Z,80
2022-10-17T02:06:01.177Z,80
2022-10-17T02:07:01.078Z,80
2022-10-17T02:08:01.157Z,80
2022-10-17T02:09:01.113Z,80
2022-10-17T02:10:04.369Z,80
2022-10-17T02:11:01.124Z,80
2022-10-17T02:12:01.213Z,80
2022-10-17T02:13:01.133Z,80
2022-10-17T02:14:01.294Z,80
2022-10-17T02:15:04.123Z,80
2022-10-17T02:16:01.385Z,80
2022-10-17T02:17:01.177Z,80
2022-10-17T02:18:00.281Z,80
2022-10-17T02:19:00.191Z,80
2022-10-17T02:20:03.528Z,80
2022-10-17T02:21:00.219Z,80
2022-10-17T02:22:00.305Z,80
2022-10-17T02:23:00.222Z,80
2022-10-17T02:24:00.316Z,80
2022-10-17T02:25:03.023Z,80
2022-10-17T02:26:00.300Z,80
2022-10-17T02:27:00.253Z,80
2022-10-17T02:28:00.342Z,80
2022-10-17T02:29:00.326Z,80
2022-10-17T02:30:03.441Z,80
2022-10-17T02:31:00.274Z,80
2022-10-17T02:32:00.333Z,80
2022-10-17T02:33:00.310Z,80
2022-10-17T02:34:01.010Z,80
2022-10-17T02:35:04.813Z,80
2022-10-17T02:36:00.383Z,80
2022-10-17T02:37:00.317Z,80
2022-10-17T02:38:00.393Z,80
2022-10-17T02:39:00.340Z,80
2022-10-17T02:40:03.751Z,80
2022-10-17T02:41:00.366Z,80
2022-10-17T02:42:00.452Z,80
2022-10-17T02:43:00.363Z,80
2022-10-17T02:44:02.416Z,80
2022-10-17T02:45:03.282Z,80
2022-10-17T02:46:00.488Z,80
2022-10-17T02:47:00.391Z,80
2022-10-17T02:48:00.951Z,80
2022-10-17T02:49:00.404Z,80
2022-10-17T02:50:03.527Z,80
2022-10-17T02:51:00.422Z,80
2022-10-17T02:52:00.974Z,80
2022-10-17T02:53:00.429Z,80
2022-10-17T02:54:00.509Z,80
2022-10-17T02:55:04.736Z,80
2022-10-17T02:56:00.946Z,80
2022-10-17T02:57:00.469Z,80
2022-10-17T02:58:00.557Z,80
2022-10-17T02:59:00.467Z,80
2022-10-17T03:00:03.689Z,80
2022-10-17T03:01:00.546Z,80
2022-10-17T03:02:00.566Z,80
2022-10-17T03:03:00.518Z,80
2022-10-17T03:04:00.620Z,80
2022-10-17T03:05:03.336Z,80
2022-10-17T03:06:00.651Z,80
2022-10-17T03:07:00.540Z,80
2022-10-17T03:08:00.617Z,80
2022-10-17T03:09:00.564Z,80
2022-10-17T03:10:03.828Z,80
2022-10-17T03:11:00.591Z,80
2022-10-17T03:12:00.650Z,80
2022-10-17T03:13:00.601Z,80
2022-10-17T03:14:00.987Z,80
2022-10-17T03:15:03.470Z,80
2022-10-17T03:16:00.717Z,80
2022-10-17T03:17:00.632Z,80
2022-10-17T03:18:00.693Z,80
2022-10-17T03:19:00.639Z,80
2022-10-17T03:20:03.683Z,80
2022-10-17T03:21:00.668Z,80
2022-10-17T03:22:00.786Z,80
2022-10-17T03:23:00.672Z,80
2022-10-17T03:24:00.746Z,80
2022-10-17T03:25:03.430Z,80
2022-10-17T03:26:00.756Z,80
2022-10-17T03:27:00.707Z,80
2022-10-17T03:28:01.018Z,79
2022-10-17T03:29:00.752Z,79
2022-10-17T03:30:05.969Z,79
2022-10-17T03:31:00.718Z,79
2022-10-17T03:32:00.795Z,79
2022-10-17T03:33:00.761Z,79
2022-10-17T03:34:00.842Z,80
2022-10-17T03:35:03.594Z,80
2022-10-17T03:36:00.838Z,80
2022-10-17T03:37:00.784Z,80
2022-10-17T03:38:00.886Z,80
2022-10-17T03:39:00.785Z,79
2022-10-17T03:40:04.337Z,79
2022-10-17T03:41:00.807Z,79
2022-10-17T03:42:00.885Z,79
2022-10-17T03:43:00.807Z,79
2022-10-17T03:44:00.940Z,79
2022-10-17T03:45:03.698Z,79
2022-10-17T03:46:00.926Z,79
2022-10-17T03:47:00.837Z,79
2022-10-17T03:48:00.913Z,79
2022-10-17T03:49:00.842Z,79
2022-10-17T03:50:04.229Z,79
2022-10-17T03:51:00.870Z,79
2022-10-17T03:52:00.943Z,79
2022-10-17T03:53:00.878Z,79
2022-10-17T03:54:00.993Z,79
2022-10-17T03:55:03.757Z,79
2022-10-17T03:56:00.965Z,79
2022-10-17T03:57:00.910Z,79
2022-10-17T03:58:00.982Z,79
2022-10-17T03:59:00.925Z,79
2022-10-17T04:00:04.203Z,79
2022-10-17T04:01:01.003Z,79
2022-10-17T04:02:01.034Z,79
2022-10-17T04:03:00.970Z,79
2022-10-17T04:04:01.062Z,79
2022-10-17T04:05:03.845Z,79
2022-10-17T04:06:02.966Z,79
2022-10-17T04:07:00.997Z,79
2022-10-17T04:08:04.010Z,79
2022-10-17T04:09:01.012Z,79
2022-10-17T04:10:04.327Z,79
2022-10-17T04:11:01.005Z,79
2022-10-17T04:12:01.102Z,79
2022-10-17T04:13:01.047Z,79
2022-10-17T04:14:01.125Z,79
2022-10-17T04:15:03.949Z,79
2022-10-17T04:16:01.156Z,79
2022-10-17T04:17:01.055Z,79
2022-10-17T04:18:01.206Z,79
2022-10-17T04:19:01.084Z,79
2022-10-17T04:20:04.415Z,79
2022-10-17T04:21:01.091Z,79
2022-10-17T04:22:01.335Z,79
2022-10-17T04:23:01.089Z,79
2022-10-17T04:24:01.208Z,79
2022-10-17T04:25:17.665Z,79
2022-10-17T04:26:01.183Z,79
2022-10-17T04:27:01.137Z,79
2022-10-17T04:28:01.210Z,79
2022-10-17T04:29:01.154Z,79
2022-10-17T04:30:04.444Z,79
2022-10-17T04:31:01.156Z,79
2022-10-17T04:32:01.228Z,79
2022-10-17T04:33:01.183Z,79
2022-10-17T04:34:00.275Z,79
2022-10-17T04:35:03.154Z,79
2022-10-17T04:36:00.274Z,79
2022-10-17T04:37:00.190Z,79
2022-10-17T04:38:00.298Z,79
2022-10-17T04:39:00.292Z,79
2022-10-17T04:40:03.541Z,79
2022-10-17T04:41:00.249Z,79
2022-10-17T04:42:00.298Z,79
2022-10-17T04:43:00.231Z,79
2022-10-17T04:44:00.317Z,78
2022-10-17T04:45:03.267Z,78
2022-10-17T04:46:00.348Z,78
2022-10-17T04:47:00.257Z,78
2022-10-17T04:48:00.336Z,78
2022-10-17T04:49:00.262Z,79
2022-10-17T04:50:03.585Z,79
2022-10-17T04:51:00.295Z,79
2022-10-17T04:52:00.382Z,79
2022-10-17T04:53:00.308Z,79
2022-10-17T04:54:00.383Z,79
2022-10-17T04:55:03.284Z,79
2022-10-17T04:56:00.390Z,79
2022-10-17T04:57:00.338Z,79
2022-10-17T04:58:00.437Z,79
2022-10-17T04:59:00.338Z,78
2022-10-17T05:00:04.889Z,78
2022-10-17T05:01:00.399Z,78
2022-10-17T05:02:00.454Z,78
2022-10-17T05:03:00.392Z,78
2022-10-17T05:04:00.466Z,78
2022-10-17T05:05:03.264Z,79
2022-10-17T05:06:00.486Z,79
2022-10-17T05:07:00.463Z,79
2022-10-17T05:08:00.489Z,79
2022-10-17T05:09:00.437Z,79
2022-10-17T05:10:04.860Z,79
2022-10-17T05:12:00.527Z,79
2022-10-17T05:13:00.462Z,79
2022-10-17T05:14:00.555Z,79
2022-10-17T05:15:03.286Z,78
2022-10-17T05:16:00.613Z,78
2022-10-17T05:17:00.480Z,78
2022-10-17T05:18:00.558Z,79
2022-10-17T05:19:00.481Z,79
2022-10-17T05:20:12.547Z,78
2022-10-17T05:21:00.523Z,78
2022-10-17T05:22:00.607Z,78
2022-10-17T05:23:00.534Z,78
2022-10-17T05:24:00.634Z,78
2022-10-17T05:25:03.487Z,78
2022-10-17T05:26:00.628Z,78
2022-10-17T05:27:00.569Z,78
2022-10-17T05:28:00.776Z,78
2022-10-17T05:29:00.672Z,78
2022-10-17T05:30:04.035Z,78
2022-10-17T05:31:00.593Z,78
2022-10-17T05:33:00.614Z,78
2022-10-17T05:34:00.693Z,78
2022-10-17T05:35:03.401Z,78
2022-10-17T05:36:00.708Z,78
2022-10-17T05:37:00.640Z,78
2022-10-17T05:38:00.736Z,78
2022-10-17T05:39:00.661Z,78
2022-10-17T05:40:03.911Z,78
2022-10-17T05:41:00.682Z,78
2022-10-17T05:42:00.749Z,78
2022-10-17T05:43:00.666Z,78
2022-10-17T05:44:04.639Z,78
2022-10-17T05:45:05.075Z,78
2022-10-17T05:46:00.754Z,78
2022-10-17T05:47:00.697Z,78
2022-10-17T05:48:00.796Z,78
2022-10-17T05:49:00.725Z,78
2022-10-17T05:50:05.730Z,78
2022-10-17T05:51:00.744Z,78
2022-10-17T05:52:00.808Z,78
2022-10-17T05:53:00.734Z,78
2022-10-17T05:54:00.813Z,78
2022-10-17T05:55:03.622Z,78
2022-10-17T05:56:00.862Z,78
2022-10-17T05:57:00.786Z,78
2022-10-17T05:58:00.868Z,78
2022-10-17T05:59:01.200Z,78
2022-10-17T06:00:05.653Z,78
2022-10-17T06:01:00.819Z,78
2022-10-17T06:02:01.010Z,78
2022-10-17T06:03:00.841Z,78
2022-10-17T06:04:00.909Z,78
2022-10-17T06:05:03.746Z,78
2022-10-17T06:06:01.095Z,78
2022-10-17T06:07:01.024Z,78
2022-10-17T06:08:02.045Z,78
2022-10-17T06:09:00.950Z,78
2022-10-17T06:10:04.506Z,78
2022-10-17T06:11:02.240Z,78
2022-10-17T06:12:00.986Z,78
2022-10-17T06:13:00.914Z,78
2022-10-17T06:14:01.001Z,78
2022-10-17T06:15:05.707Z,78
2022-10-17T06:16:01.030Z,78
2022-10-17T06:17:00.937Z,78
2022-10-17T06:18:01.024Z,78
2022-10-17T06:19:00.943Z,78
2022-10-17T06:20:04.491Z,78
2022-10-17T06:21:00.982Z,78
2022-10-17T06:22:01.061Z,78
2022-10-17T06:23:00.987Z,78
2022-10-17T06:24:01.067Z,78
2022-10-17T06:25:05.679Z,78
2022-10-17T06:26:01.077Z,78
2022-10-17T06:27:01.022Z,78
2022-10-17T06:28:01.086Z,78
2022-10-17T06:29:01.096Z,78
2022-10-17T06:30:01.729Z,78
2022-10-17T06:31:01.076Z,78
2022-10-17T06:32:01.122Z,78
2022-10-17T06:33:01.056Z,78
2022-10-17T06:34:01.133Z,78
2022-10-17T06:35:05.758Z,78
2022-10-17T06:36:01.170Z,78
2022-10-17T06:37:01.129Z,78
2022-10-17T06:38:01.237Z,78
2022-10-17T06:39:01.087Z,78
2022-10-17T06:40:04.574Z,78
2022-10-17T06:41:01.154Z,77
2022-10-17T06:42:01.220Z,77
2022-10-17T06:43:01.113Z,77
2022-10-17T06:44:01.223Z,77
2022-10-17T06:45:04.206Z,77
2022-10-17T06:46:01.265Z,77
2022-10-17T06:47:01.141Z,77
2022-10-17T06:48:01.404Z,77
2022-10-17T06:49:01.154Z,77
2022-10-17T06:50:05.728Z,77
2022-10-17T06:51:01.173Z,77
2022-10-17T06:52:00.249Z,77
2022-10-17T06:53:00.182Z,77
2022-10-17T06:54:00.357Z,77
2022-10-17T06:56:00.274Z,77
2022-10-17T06:57:00.208Z,76
2022-10-17T06:58:00.343Z,76
2022-10-17T06:59:00.220Z,76
2022-10-17T07:00:03.602Z,76
2022-10-17T07:01:01.033Z,76
2022-10-17T07:02:00.328Z,76
2022-10-17T07:03:00.268Z,76
2022-10-17T07:04:00.365Z,76
2022-10-17T07:05:03.293Z,76
2022-10-17T07:06:00.348Z,76
2022-10-17T07:07:00.342Z,76
2022-10-17T07:08:00.360Z,76
2022-10-17T07:09:00.371Z,75
2022-10-17T07:10:29.176Z,75
2022-10-17T07:11:00.322Z,75
2022-10-17T07:12:00.403Z,75
2022-10-17T07:13:00.340Z,75
2022-10-17T07:14:00.420Z,75
2022-10-17T07:15:03.353Z,75
2022-10-17T07:16:00.515Z,75
2022-10-17T07:17:00.413Z,75
2022-10-17T07:18:00.509Z,75
2022-10-17T07:19:00.385Z,75
2022-10-17T07:20:03.762Z,75
2022-10-17T07:21:00.403Z,75
2022-10-17T07:22:00.508Z,74
2022-10-17T07:23:00.409Z,74
2022-10-17T07:24:00.486Z,74
2022-10-17T07:25:04.649Z,74
2022-10-17T07:26:00.515Z,74
2022-10-17T07:27:00.515Z,74
2022-10-17T07:28:00.546Z,74
2022-10-17T07:29:00.507Z,74
2022-10-17T07:30:04.784Z,74
2022-10-17T07:31:00.457Z,74
2022-10-17T07:32:00.599Z,74
2022-10-17T07:33:01.137Z,74
2022-10-17T07:34:00.728Z,74
2022-10-17T07:35:04.783Z,74
2022-10-17T07:36:00.579Z,74
2022-10-17T07:37:00.495Z,74
2022-10-17T07:38:00.629Z,74
2022-10-17T07:39:00.522Z,74
2022-10-17T07:40:04.467Z,74
2022-10-17T07:41:00.524Z,73
2022-10-17T07:42:00.612Z,73
2022-10-17T07:43:00.533Z,73
2022-10-17T07:44:00.617Z,73
2022-10-17T07:45:03.568Z,73
2022-10-17T07:46:00.658Z,74
2022-10-17T07:47:00.561Z,74
2022-10-17T07:48:00.656Z,74
2022-10-17T07:49:00.564Z,74
2022-10-17T07:50:03.928Z,74
2022-10-17T07:51:00.619Z,74
2022-10-17T07:52:00.673Z,74
2022-10-17T07:53:00.606Z,74
2022-10-17T07:54:00.686Z,74
2022-10-17T07:55:03.533Z,74
2022-10-17T07:56:00.686Z,74
2022-10-17T07:57:00.633Z,75
2022-10-17T07:58:00.704Z,75
2022-10-17T07:59:02.750Z,75
2022-10-17T08:00:05.036Z,75
2022-10-17T08:02:00.718Z,74
2022-10-17T08:03:00.663Z,74
2022-10-17T08:04:00.754Z,74
2022-10-17T08:05:05.705Z,74
2022-10-17T08:06:00.782Z,74
2022-10-17T08:07:11.922Z,74
2022-10-17T08:08:00.778Z,74
2022-10-17T08:09:00.716Z,74
2022-10-17T08:10:03.984Z,74
2022-10-17T08:11:00.712Z,74
2022-10-17T08:12:00.823Z,74
2022-10-17T08:13:00.737Z,74
2022-10-17T08:14:00.810Z,74
2022-10-17T08:15:03.859Z,74
2022-10-17T08:16:00.847Z,74
2022-10-17T08:17:00.762Z,74
2022-10-17T08:18:00.848Z,74
2022-10-17T08:19:00.799Z,74
2022-10-17T08:20:05.690Z,73
2022-10-17T08:21:00.899Z,73
2022-10-17T08:22:00.901Z,73
2022-10-17T08:23:00.921Z,73
2022-10-17T08:24:00.885Z,73
2022-10-17T08:25:03.674Z,73
2022-10-17T08:26:00.877Z,73
2022-10-17T08:27:00.829Z,72
2022-10-17T08:28:00.931Z,72
2022-10-17T08:29:00.974Z,72
2022-10-17T08:30:05.777Z,72
2022-10-17T08:31:00.851Z,72
2022-10-17T08:32:02.346Z,72
2022-10-17T08:33:00.868Z,72
2022-10-17T08:34:00.952Z,72
2022-10-17T08:35:03.849Z,72
2022-10-17T08:36:00.993Z,72
2022-10-17T08:37:00.944Z,72
2022-10-17T08:38:00.980Z,72
2022-10-17T08:39:01.375Z,72
2022-10-17T08:40:09.321Z,72
2022-10-17T08:41:00.985Z,72
2022-10-17T08:42:01.182Z,73
2022-10-17T08:43:00.987Z,73
2022-10-17T08:44:01.053Z,73
2022-10-17T08:45:04.363Z,73
2022-10-17T08:46:01.176Z,73
2022-10-17T08:47:00.970Z,73
2022-10-17T08:48:01.067Z,73
2022-10-17T08:49:00.990Z,73
2022-10-17T08:50:05.720Z,73
2022-10-17T08:51:01.009Z,73
2022-10-17T08:52:01.129Z,73
2022-10-17T08:53:01.016Z,73
2022-10-17T08:54:01.093Z,73
2022-10-17T08:55:04.107Z,73
2022-10-17T08:56:01.099Z,73
2022-10-17T08:57:01.090Z,73
2022-10-17T08:58:01.134Z,73
2022-10-17T08:59:01.048Z,73
2022-10-17T09:00:06.512Z,73
2022-10-17T09:01:01.061Z,73
2022-10-17T09:02:01.634Z,74
2022-10-17T09:03:01.125Z,74
2022-10-17T09:04:02.129Z,73
2022-10-17T09:05:04.142Z,73
2022-10-17T09:06:01.255Z,73
2022-10-17T09:07:01.101Z,73
2022-10-17T09:08:02.240Z,74
2022-10-17T09:09:01.115Z,74
2022-10-17T09:10:04.670Z,73
2022-10-17T09:11:01.128Z,73
2022-10-17T09:12:01.257Z,73
2022-10-17T09:13:06.776Z,74
2022-10-17T09:14:01.219Z,74
2022-10-17T09:15:04.229Z,74
2022-10-17T09:16:01.936Z,74
2022-10-17T09:17:00.161Z,74
2022-10-17T09:18:00.339Z,74
2022-10-17T09:19:00.195Z,74
2022-10-17T09:20:04.812Z,74
2022-10-17T09:21:00.200Z,74
2022-10-17T09:22:00.801Z,74
2022-10-17T09:23:00.323Z,74
2022-10-17T09:24:09.011Z,74
2022-10-17T09:25:03.710Z,74
2022-10-17T09:26:01.219Z,74
2022-10-17T09:27:00.233Z,74
2022-10-17T09:28:01.438Z,74
2022-10-17T09:29:00.310Z,74
2022-10-17T09:30:05.632Z,74
2022-10-17T09:31:00.255Z,73
2022-10-17T09:32:00.372Z,73
2022-10-17T09:33:00.294Z,72
2022-10-17T09:34:01.069Z,72
2022-10-17T09:35:03.192Z,72
2022-10-17T09:36:01.205Z,71
2022-10-17T09:37:00.306Z,71
2022-10-17T09:38:00.769Z,70
2022-10-17T09:39:00.338Z,70
2022-10-17T09:40:04.861Z,70
2022-10-17T09:41:00.464Z,70
2022-10-17T09:42:01.168Z,70
2022-10-17T09:43:00.340Z,69
2022-10-17T09:44:01.384Z,69
2022-10-17T09:45:03.350Z,69
2022-10-17T09:46:00.836Z,68
2022-10-17T09:47:00.377Z,68
2022-10-17T09:48:01.784Z,68
2022-10-17T09:49:00.387Z,68
2022-10-17T09:50:05.585Z,68
2022-10-17T09:51:14.701Z,68
2022-10-17T09:52:01.411Z,68
2022-10-17T09:53:00.408Z,67
2022-10-17T09:54:01.281Z,67
2022-10-17T09:55:04.950Z,67
2022-10-17T09:56:01.200Z,67
2022-10-17T09:57:00.462Z,67
2022-10-17T09:58:01.276Z,67
2022-10-17T09:59:00.465Z,68
2022-10-17T10:00:03.933Z,68
2022-10-17T10:01:00.587Z,67
2022-10-17T10:02:00.580Z,67
2022-10-17T10:03:00.511Z,68
2022-10-17T10:04:01.609Z,68
2022-10-17T10:05:05.025Z,68
2022-10-17T10:06:01.461Z,68
2022-10-17T10:07:00.529Z,68
2022-10-17T10:08:00.619Z,68
2022-10-17T10:09:00.549Z,68
2022-10-17T10:10:05.702Z,68
2022-10-17T10:11:00.543Z,68
2022-10-17T10:12:00.669Z,68
2022-10-17T10:13:00.562Z,69
2022-10-17T10:14:01.271Z,69
2022-10-17T10:15:03.476Z,69
2022-10-17T10:16:00.677Z,68
2022-10-17T10:17:00.573Z,68
2022-10-17T10:18:00.677Z,68
2022-10-17T10:19:02.010Z,68
2022-10-17T10:20:05.999Z,68
2022-10-17T10:21:00.623Z,68
2022-10-17T10:22:00.760Z,68
2022-10-17T10:23:00.615Z,67
2022-10-17T10:24:00.963Z,67
2022-10-17T10:25:03.518Z,66
2022-10-17T10:26:01.335Z,66
2022-10-17T10:27:00.673Z,66
2022-10-17T10:28:01.804Z,67
2022-10-17T10:29:00.786Z,67
2022-10-17T10:30:04.193Z,67
2022-10-17T10:31:00.691Z,67
2022-10-17T10:32:00.764Z,67
2022-10-17T10:33:00.704Z,66
2022-10-17T10:34:00.782Z,66
2022-10-17T10:35:03.684Z,65
2022-10-17T10:36:00.780Z,65
2022-10-17T10:37:00.780Z,65
2022-10-17T10:38:00.797Z,65
2022-10-17T10:39:03.826Z,65
2022-10-17T10:40:04.024Z,65
2022-10-17T10:41:00.748Z,65
2022-10-17T10:42:00.820Z,65
2022-10-17T10:43:05.195Z,66
2022-10-17T10:44:00.837Z,66
2022-10-17T10:45:03.955Z,66
2022-10-17T10:46:00.933Z,66
2022-10-17T10:47:00.789Z,66
2022-10-17T10:48:00.879Z,66
2022-10-17T10:49:00.793Z,65
2022-10-17T10:50:05.769Z,65
2022-10-17T10:51:00.829Z,65
2022-10-17T10:52:00.910Z,65
2022-10-17T10:53:00.846Z,65
2022-10-17T10:54:00.924Z,65
2022-10-17T10:55:05.618Z,65
2022-10-17T10:56:00.906Z,64
2022-10-17T10:57:00.871Z,64
2022-10-17T10:58:00.962Z,64
2022-10-17T10:59:00.877Z,64
2022-10-17T11:00:04.473Z,64
2022-10-17T11:01:00.902Z,64
2022-10-17T11:02:00.994Z,64
2022-10-17T11:03:01.910Z,64
2022-10-17T11:04:01.020Z,64
2022-10-17T11:05:05.108Z,64
2022-10-17T11:06:01.023Z,64
2022-10-17T11:07:01.009Z,64
2022-10-17T11:08:01.087Z,64
2022-10-17T11:09:00.990Z,64
2022-10-17T11:10:04.552Z,64
2022-10-17T11:11:01.006Z,64
2022-10-17T11:12:01.092Z,63
2022-10-17T11:13:01.015Z,63
2022-10-17T11:14:01.093Z,64
2022-10-17T11:15:05.720Z,64
2022-10-17T11:16:01.089Z,64
2022-10-17T11:17:01.041Z,65
2022-10-17T11:18:01.137Z,65
2022-10-17T11:19:01.047Z,65
2022-10-17T11:20:04.448Z,65
2022-10-17T11:21:01.110Z,65
2022-10-17T11:22:01.146Z,65
2022-10-17T11:23:01.088Z,65
2022-10-17T11:24:02.851Z,66
2022-10-17T11:25:04.047Z,66
2022-10-17T11:26:01.289Z,66
2022-10-17T11:27:01.118Z,66
2022-10-17T11:28:04.921Z,66
2022-10-17T11:29:01.170Z,67
2022-10-17T11:30:04.678Z,67
2022-10-17T11:31:03.393Z,67
2022-10-17T11:32:01.236Z,67
2022-10-17T11:33:01.164Z,67
2022-10-17T11:34:00.246Z,68
2022-10-17T11:35:03.432Z,68
2022-10-17T11:36:00.250Z,68
2022-10-17T11:37:00.187Z,68
2022-10-17T11:38:00.261Z,68
2022-10-17T11:39:00.218Z,69
2022-10-17T11:40:04.565Z,69
2022-10-17T11:41:00.219Z,69
2022-10-17T11:42:03.342Z,69
2022-10-17T11:43:00.233Z,69
2022-10-17T11:44:00.330Z,69
2022-10-17T11:45:18.368Z,69
2022-10-17T11:46:00.315Z,69
2022-10-17T11:47:00.243Z,69
2022-10-17T11:48:00.344Z,69
2022-10-17T11:49:00.259Z,69
2022-10-17T11:52:02.063Z,70
2022-10-17T11:53:00.715Z,70
2022-10-17T11:54:00.387Z,70
2022-10-17T11:55:03.441Z,70
2022-10-17T11:56:00.535Z,70
2022-10-17T11:57:00.367Z,70
2022-10-17T11:58:00.379Z,70
2022-10-17T11:59:00.328Z,70
2022-10-17T12:00:10.799Z,70
2022-10-17T12:01:00.343Z,70
2022-10-17T12:02:00.431Z,70
2022-10-17T12:03:00.360Z,70
2022-10-17T12:04:00.484Z,70
2022-10-17T12:05:03.506Z,70
2022-10-17T12:06:00.459Z,70
2022-10-17T12:07:00.378Z,70
2022-10-17T12:08:00.627Z,70
2022-10-17T12:09:00.447Z,70
2022-10-17T12:10:31.858Z,70
2022-10-17T12:11:01.098Z,70
2022-10-17T12:12:00.481Z,70
2022-10-17T12:13:00.448Z,70
2022-10-17T12:14:04.974Z,70
2022-10-17T12:15:03.456Z,70
2022-10-17T12:16:00.531Z,70
2022-10-17T12:17:00.485Z,70
2022-10-17T12:18:01.057Z,70
2022-10-17T12:19:00.455Z,70
2022-10-17T12:20:03.722Z,70
2022-10-17T12:21:00.516Z,70
2022-10-17T12:22:00.677Z,70
2022-10-17T12:23:00.487Z,70
2022-10-17T12:24:00.612Z,70
2022-10-17T12:25:31.637Z,70
2022-10-17T12:26:03.320Z,70
2022-10-17T12:27:00.518Z,70
2022-10-17T12:28:01.462Z,70
2022-10-17T12:29:00.585Z,70
2022-10-17T12:30:35.986Z,70
2022-10-17T12:31:00.541Z,70
2022-10-17T12:32:00.641Z,70
2022-10-17T12:33:06.215Z,70
2022-10-17T12:34:01.519Z,70
2022-10-17T12:35:03.446Z,70
2022-10-17T12:36:00.678Z,70
2022-10-17T12:37:00.593Z,69
2022-10-17T12:38:01.383Z,69
2022-10-17T12:39:00.592Z,69
2022-10-17T12:40:34.515Z,70
2022-10-17T12:41:00.613Z,70
2022-10-17T12:42:00.702Z,70
2022-10-17T12:43:00.617Z,69
2022-10-17T12:44:00.690Z,69
2022-10-17T12:46:01.163Z,69
2022-10-17T12:47:00.647Z,69
2022-10-17T12:48:00.745Z,69
2022-10-17T12:49:00.677Z,69
2022-10-17T12:50:05.039Z,70
2022-10-17T12:51:17.610Z,70
2022-10-17T12:52:00.924Z,70
2022-10-17T12:53:00.824Z,69
2022-10-17T12:54:00.838Z,69
2022-10-17T12:55:12.617Z,69
2022-10-17T12:56:00.782Z,69
2022-10-17T12:57:00.812Z,70
2022-10-17T12:58:00.804Z,70
2022-10-17T12:59:00.744Z,70
2022-10-17T13:00:06.033Z,69
2022-10-17T13:01:23.082Z,69
2022-10-17T13:02:00.905Z,69
2022-10-17T13:03:00.787Z,69
2022-10-17T13:04:00.857Z,69
2022-10-17T13:05:06.030Z,69
2022-10-17T13:06:00.881Z,69
2022-10-17T13:07:00.810Z,69
2022-10-17T13:08:00.952Z,69
2022-10-17T13:09:03.795Z,69
2022-10-17T13:10:04.459Z,68
2022-10-17T13:11:00.978Z,68
2022-10-17T13:12:00.915Z,68
2022-10-17T13:13:00.840Z,69
2022-10-17T13:14:00.938Z,69
2022-10-17T13:15:03.955Z,69
2022-10-17T13:16:00.921Z,69
2022-10-17T13:17:00.908Z,69
2022-10-17T13:18:00.971Z,69
2022-10-17T13:19:00.876Z,69
2022-10-17T13:20:05.702Z,69
2022-10-17T13:21:00.924Z,69
2022-10-17T13:22:06.049Z,69
2022-10-17T13:23:00.947Z,69
2022-10-17T13:24:01.048Z,69
2022-10-17T13:25:03.838Z,69
2022-10-17T13:26:01.038Z,68
2022-10-17T13:27:01.124Z,68
2022-10-17T13:28:01.029Z,69
2022-10-17T13:29:01.132Z,69
2022-10-17T13:30:05.774Z,68
2022-10-17T13:31:00.989Z,68
2022-10-17T13:32:01.128Z,68
2022-10-17T13:33:01.030Z,69
2022-10-17T13:34:01.075Z,69
2022-10-17T13:35:07.761Z,69
2022-10-17T13:36:01.405Z,69
2022-10-17T13:37:01.061Z,69
2022-10-17T13:38:01.133Z,68
2022-10-17T13:39:01.069Z,68
2022-10-17T13:40:16.249Z,69
2022-10-17T13:41:16.892Z,69
2022-10-17T13:42:01.248Z,69
2022-10-17T13:43:01.161Z,69
2022-10-17T13:44:01.341Z,69
2022-10-17T13:45:05.720Z,69
2022-10-17T13:46:13.799Z,69
2022-10-17T13:47:01.138Z,69
2022-10-17T13:48:01.205Z,70
2022-10-17T13:49:01.138Z,70
2022-10-17T13:50:09.436Z,70
2022-10-17T13:51:02.768Z,70
2022-10-17T13:52:00.533Z,70
2022-10-17T13:53:00.176Z,69
2022-10-17T13:54:00.348Z,69
2022-10-17T13:55:03.515Z,69
2022-10-17T13:56:16.178Z,69
2022-10-17T13:57:00.204Z,69
2022-10-17T13:58:00.738Z,69
2022-10-17T13:59:00.243Z,69
2022-10-17T14:00:10.025Z,69
2022-10-17T14:01:00.289Z,69
2022-10-17T14:02:00.612Z,69
2022-10-17T14:03:00.288Z,69
2022-10-17T14:04:09.029Z,70
2022-10-17T14:05:17.859Z,70
2022-10-17T14:06:00.608Z,70
2022-10-17T14:07:00.370Z,70
2022-10-17T14:08:14.493Z,70
2022-10-17T14:09:00.287Z,70
2022-10-17T14:10:03.716Z,70
2022-10-17T14:11:00.307Z,70
2022-10-17T14:12:00.997Z,70
2022-10-17T14:13:00.336Z,70
2022-10-17T14:14:01.009Z,70
2022-10-17T14:15:10.946Z,70
2022-10-17T14:16:00.954Z,70
2022-10-17T14:17:00.351Z,70
2022-10-17T14:18:05.424Z,70
2022-10-17T14:19:00.357Z,70
2022-10-17T14:20:51.547Z,70
2022-10-17T14:22:01.340Z,70
2022-10-17T14:23:23.096Z,70